SBOSBO MAD / LEMD
Speedbird OnlineSpeedbird Online MAD / LEMD

Adolfo Suárez Madrid–Barajas Airport
05:08 21.6°C

Location Madrid, Spain
Latitude: 40.471926
Longitude: -3.56264
Altitude 609 Meter / 1998 Feet
Distance 1,260 KM / 783 Miles
from London.
Time Zone UTC +2 hours (Europe/Madrid)
Codes IATA: MAD
ICAO: LEMD
Currency £1 equals EUR 1.18
METAR LEMD 160230Z 18001KT CAVOK 21/04 Q1009 NOSIG
TAF TAF AMD LEMD 160041Z 1600/1706 24010KT CAVOK TX31/1616Z TN15/1706Z BECMG 1600/1602 VRB05KT PROB40 TEMPO 1606/1608 24010KT BECMG 1608/1610 23010KT TEMPO 1611/1618 24015G28KT BECMG 1617/1619 30010KT BECMG 1620/1622 VRB05KT
Weather As Of 16 Aug 2022 05:08
Description Clear sky
Wind 10 km/h from West (270°)
Cloud Cover 0%
Precipitation Rain: none, Snow: none
Sunrise 07:25
Sunset 21:11
Lounges Iberia Premium Lounge Dalí, Terminal 4
Iberia Premium Lounge Velazquez, Terminal 4S
Rotations During the last 90 days there were
297 flights from LHR
66 flights from LGW
295 flights to LHR
66 flights to LGW
1 flights to MNL


© 2017-2022 Speedbird Online